Time;durP1;ratioP1;P1;durP2;ratioP2;P2;SDS_P1;SDS_P2;PMS_P1;PMS_P2;Temp;Humidity;BMP_temperature;BMP_pressure;BME280_temperature;BME280_humidity;BME280_pressure;Samples;Min_cycle;Max_cycle;Signal;HPM_P1;HPM_P2
2022/06/10 00:00:38;;;;;;;4.03;1.42;;;15.20;99.90;;;;;;5010382;28;20022;-80
2022/06/10 00:03:05;;;;;;;4.63;1.02;;;15.20;99.90;;;;;;5010794;28;20018;-79
2022/06/10 00:05:36;;;;;;;2.33;1.00;;;15.20;99.90;;;;;;5010960;28;20029;-80
2022/06/10 00:08:07;;;;;;;3.08;1.02;;;15.20;99.90;;;;;;5010868;28;20018;-79
2022/06/10 00:10:33;;;;;;;2.83;0.73;;;15.10;99.90;;;;;;5012297;28;20037;-79
2022/06/10 00:12:58;;;;;;;1.88;0.73;;;15.20;99.90;;;;;;5013926;28;20041;-80
2022/06/10 00:15:25;;;;;;;2.80;0.65;;;15.20;99.90;;;;;;5013849;28;20056;-80
2022/06/10 00:17:51;;;;;;;2.50;0.90;;;15.20;99.90;;;;;;5014536;28;20076;-80
2022/06/10 00:20:21;;;;;;;2.53;1.20;;;15.20;99.90;;;;;;5012089;28;20569;-80
2022/06/10 00:22:46;;;;;;;0.88;0.60;;;15.20;99.90;;;;;;5012420;28;20033;-80
2022/06/10 00:25:12;;;;;;;0.65;0.40;;;15.20;99.90;;;;;;5011695;28;20038;-81
2022/06/10 00:27:39;;;;;;;2.60;0.98;;;15.10;99.90;;;;;;5012865;28;20018;-80
2022/06/10 00:30:07;;;;;;;2.15;0.50;;;15.10;99.90;;;;;;5010835;28;20611;-80
2022/06/10 00:32:33;;;;;;;0.55;0.40;;;15.10;99.90;;;;;;5014410;28;20072;-79
2022/06/10 00:34:59;;;;;;;1.85;0.45;;;15.10;99.90;;;;;;5014085;28;20101;-80
2022/06/10 00:37:25;;;;;;;2.33;0.52;;;15.10;99.90;;;;;;5013911;28;20487;-80
2022/06/10 00:39:51;;;;;;;0.77;0.35;;;15.10;99.90;;;;;;5014011;28;20022;-80
2022/06/10 00:42:17;;;;;;;1.27;0.43;;;15.00;99.90;;;;;;5013869;28;20104;-79
2022/06/10 00:44:52;;;;;;;1.75;0.52;;;15.10;99.90;;;;;;5029537;22;20050;-88
2022/06/10 00:47:32;;;;;;;2.67;0.63;;;15.10;99.90;;;;;;5010643;28;20491;-90
2022/06/10 00:50:25;;;;;;;4.13;1.10;;;15.00;99.90;;;;;;4994527;28;20049;-90
2022/06/10 00:52:59;;;;;;;1.25;0.73;;;15.10;99.90;;;;;;4995267;28;20025;-87
2022/06/10 00:55:29;;;;;;;3.53;1.25;;;15.10;99.90;;;;;;4992406;28;20037;-85
2022/06/10 00:58:05;;;;;;;2.53;1.10;;;15.10;99.90;;;;;;4993853;28;20030;-86
2022/06/10 01:00:31;;;;;;;2.85;1.60;;;15.10;99.90;;;;;;4993972;28;20050;-87
2022/06/10 01:02:57;;;;;;;2.78;1.40;;;15.10;99.90;;;;;;5001068;28;20026;-87
2022/06/10 01:05:27;;;;;;;4.28;1.73;;;15.10;99.90;;;;;;5000759;28;20041;-83
2022/06/10 01:07:59;;;;;;;3.47;1.60;;;15.10;99.90;;;;;;5001997;28;20019;-87
2022/06/10 01:10:26;;;;;;;3.65;1.70;;;15.10;99.90;;;;;;4998960;28;20027;-82
2022/06/10 01:13:29;;;;;;;3.65;1.00;;;15.20;99.90;;;;;;5000753;28;20073;-85
2022/06/10 01:16:11;;;;;;;2.40;0.73;;;15.10;99.90;;;;;;4993723;28;20419;-88
2022/06/10 01:19:26;;;;;;;2.10;0.98;;;15.20;99.90;;;;;;4989268;28;20479;-86
2022/06/10 01:22:09;;;;;;;3.45;1.58;;;15.20;99.90;;;;;;4970386;28;20089;-86
2022/06/10 01:25:16;;;;;;;5.93;1.67;;;15.10;99.90;;;;;;5001122;28;20023;-90
2022/06/10 01:28:41;;;;;;;3.78;2.00;;;15.10;99.90;;;;;;4993858;28;20025;-87
2022/06/10 01:31:12;;;;;;;6.20;2.05;;;15.10;99.90;;;;;;4908519;29;20043;-88
2022/06/10 01:34:04;;;;;;;4.45;1.10;;;15.10;99.90;;;;;;4914434;29;20076;-90
2022/06/10 01:36:52;;;;;;;4.28;1.40;;;15.10;99.90;;;;;;4977224;28;20130;-89
2022/06/10 01:39:26;;;;;;;3.30;1.30;;;15.10;99.90;;;;;;4992077;28;20116;-87
2022/06/10 01:42:07;;;;;;;2.28;1.15;;;15.20;99.90;;;;;;4994743;28;20165;-88
2022/06/10 01:44:47;;;;;;;4.22;1.52;;;15.10;99.90;;;;;;5023966;23;20108;-79
2022/06/10 01:47:48;;;;;;;7.05;2.08;;;15.20;99.90;;;;;;4994879;28;20037;-80
2022/06/10 01:50:26;;;;;;;9.68;2.85;;;15.10;99.90;;;;;;5008246;28;20068;-79
2022/06/10 01:53:07;;;;;;;4.93;2.80;;;15.20;99.90;;;;;;5011456;28;20061;-79
2022/06/10 01:55:45;;;;;;;7.90;3.30;;;15.10;99.90;;;;;;5012520;28;20416;-80
2022/06/10 01:58:42;;;;;;;7.20;3.60;;;15.10;99.90;;;;;;4994684;28;20025;-80
2022/06/10 02:01:32;;;;;;;10.73;3.13;;;15.20;99.90;;;;;;5011465;28;20029;-79
2022/06/10 02:04:19;;;;;;;11.02;3.67;;;15.10;99.90;;;;;;5006811;28;20022;-80
2022/06/10 02:07:06;;;;;;;9.18;3.50;;;15.20;99.90;;;;;;5006756;28;20037;-79
2022/06/10 02:09:43;;;;;;;14.68;4.03;;;15.10;99.90;;;;;;5007428;28;20018;-79
2022/06/10 02:12:52;;;;;;;8.68;3.20;;;15.10;99.90;;;;;;5006410;28;20099;-79
2022/06/10 02:15:34;;;;;;;13.20;3.97;;;15.20;99.90;;;;;;4942964;28;20135;-79
2022/06/10 02:18:11;;;;;;;;;;;15.20;99.90;;;;;;4950650;29;20171;-80
2022/06/10 02:20:45;;;;;;;14.32;3.60;;;15.20;99.90;;;;;;4990459;28;19906;-80
2022/06/10 02:23:16;;;;;;;10.43;3.45;;;15.10;99.90;;;;;;5012130;28;20045;-79
2022/06/10 02:25:49;;;;;;;11.25;3.80;;;15.10;99.90;;;;;;5003357;28;20526;-79
2022/06/10 02:28:39;;;;;;;12.02;3.85;;;15.20;99.90;;;;;;5012000;28;20018;-80
2022/06/10 02:31:11;;;;;;;11.77;4.03;;;15.10;99.90;;;;;;5018765;28;20090;-79
2022/06/10 02:33:37;;;;;;;18.27;3.92;;;15.10;99.90;;;;;;5011543;28;20014;-80
2022/06/10 02:36:03;;;;;;;16.25;4.43;;;15.10;99.90;;;;;;5011885;28;20092;-78
2022/06/10 02:38:35;;;;;;;12.88;3.58;;;15.10;99.90;;;;;;5012124;28;20017;-78
2022/06/10 02:41:14;;;;;;;10.80;4.57;;;15.10;99.90;;;;;;5011809;28;20026;-79
2022/06/10 02:44:08;;;;;;;21.02;4.40;;;15.10;99.90;;;;;;5027910;22;20193;-86
2022/06/10 02:46:40;;;;;;;13.38;4.03;;;15.10;99.90;;;;;;4985178;28;20042;-89
2022/06/10 02:49:13;;;;;;;14.93;3.22;;;15.10;99.90;;;;;;4990062;28;20049;-91
2022/06/10 02:51:39;;;;;;;11.30;3.97;;;15.10;99.90;;;;;;4998566;28;20069;-87
2022/06/10 02:54:11;;;;;;;18.17;4.30;;;15.10;99.90;;;;;;4998478;28;20042;-89
2022/06/10 02:56:37;;;;;;;8.73;2.42;;;15.10;99.90;;;;;;4997211;28;20018;-91
2022/06/10 03:02:04;;;;;;;9.93;3.72;;;15.10;99.90;;;;;;4991823;28;20069;-85
2022/06/10 03:04:45;;;;;;;14.68;5.35;;;15.10;99.90;;;;;;4992070;28;20034;-85
2022/06/10 03:07:26;;;;;;;9.52;3.30;;;15.10;99.90;;;;;;4989456;28;20034;-85
2022/06/10 03:10:01;;;;;;;7.07;3.47;;;15.10;99.90;;;;;;4992080;28;20381;-86
2022/06/10 03:12:47;;;;;;;16.48;3.50;;;15.10;99.90;;;;;;4989757;28;20085;-88
2022/06/10 03:15:22;;;;;;;17.02;3.85;;;15.10;99.90;;;;;;4991232;28;20396;-86
2022/06/10 03:18:14;;;;;;;16.00;4.45;;;15.10;99.90;;;;;;4995873;28;20467;-86
2022/06/10 03:21:10;;;;;;;13.23;3.97;;;15.10;99.90;;;;;;4994680;28;20025;-87
2022/06/10 03:23:42;;;;;;;8.13;3.33;;;15.10;99.90;;;;;;4991391;28;20076;-85
2022/06/10 03:26:34;;;;;;;11.93;3.92;;;15.10;99.90;;;;;;4998071;28;20037;-85
2022/06/10 03:29:08;;;;;;;11.35;3.38;;;15.10;99.90;;;;;;4991435;28;20046;-86
2022/06/10 03:31:39;;;;;;;11.15;3.70;;;15.10;99.90;;;;;;4989653;28;20066;-84
2022/06/10 03:34:13;;;;;;;10.95;4.28;;;15.10;99.90;;;;;;4991491;28;20489;-84
2022/06/10 03:36:40;;;;;;;14.05;3.70;;;15.10;99.90;;;;;;4985846;28;20039;-83
2022/06/10 03:39:07;;;;;;;11.77;4.25;;;15.10;99.90;;;;;;4991720;28;20029;-85
2022/06/10 03:41:34;;;;;;;13.98;3.63;;;15.10;99.90;;;;;;4991633;28;20031;-84
2022/06/10 03:44:06;;;;;;;19.73;3.78;;;15.10;99.90;;;;;;5014912;22;20454;-77
2022/06/10 03:46:33;;;;;;;;;;;15.10;99.90;;;;;;5014810;28;20039;-78
2022/06/10 03:49:04;;;;;;;8.55;2.90;;;15.10;99.90;;;;;;5014891;28;20009;-78
2022/06/10 03:51:32;;;;;;;13.15;3.65;;;15.10;99.90;;;;;;5015127;28;20014;-79
2022/06/10 03:53:58;;;;;;;11.27;2.90;;;15.10;99.90;;;;;;5014391;28;20471;-79
2022/06/10 03:56:24;;;;;;;9.82;3.67;;;15.10;99.90;;;;;;4995902;28;20041;-79
2022/06/10 03:58:51;;;;;;;9.48;3.72;;;15.10;99.90;;;;;;4995024;28;20026;-79
2022/06/10 04:01:17;;;;;;;10.68;3.55;;;15.10;99.90;;;;;;4994982;28;20391;-78
2022/06/10 04:03:43;;;;;;;11.85;3.17;;;15.10;99.90;;;;;;4994911;28;20026;-79
2022/06/10 04:06:09;;;;;;;11.00;3.22;;;15.20;99.90;;;;;;4995154;28;20082;-78
2022/06/10 04:08:34;;;;;;;6.80;3.28;;;15.20;99.90;;;;;;4995052;28;20023;-78
2022/06/10 04:11:00;;;;;;;15.57;3.72;;;15.20;99.90;;;;;;4995132;28;20029;-78
2022/06/10 04:13:26;;;;;;;8.90;2.88;;;15.20;99.90;;;;;;4994638;28;20022;-79
2022/06/10 04:15:51;;;;;;;9.75;2.85;;;15.20;99.90;;;;;;4995860;28;20022;-78
2022/06/10 04:18:17;;;;;;;11.52;2.78;;;15.20;99.90;;;;;;4994761;28;20023;-79
2022/06/10 04:20:43;;;;;;;12.65;2.95;;;15.30;99.90;;;;;;4994540;28;20027;-79
2022/06/10 04:23:09;;;;;;;9.60;3.63;;;15.30;99.90;;;;;;4994318;28;20022;-79
2022/06/10 04:25:37;;;;;;;8.73;3.53;;;15.30;99.90;;;;;;5001458;28;20117;-79
2022/06/10 04:28:04;;;;;;;10.57;2.95;;;15.30;99.90;;;;;;4994700;28;20026;-79
2022/06/10 04:30:32;;;;;;;11.93;2.90;;;15.30;99.90;;;;;;4976759;28;20033;-79
2022/06/10 04:32:59;;;;;;;12.27;4.05;;;15.30;99.90;;;;;;4994445;28;20106;-79
2022/06/10 04:35:26;;;;;;;11.57;3.63;;;15.30;99.90;;;;;;4994490;28;20130;-78
2022/06/10 04:37:53;;;;;;;10.82;2.80;;;15.30;99.90;;;;;;4994417;28;20022;-78
2022/06/10 04:40:22;;;;;;;10.73;3.15;;;15.30;99.90;;;;;;4994153;28;20110;-78
2022/06/10 04:42:49;;;;;;;8.50;3.15;;;15.30;99.90;;;;;;4994169;28;20022;-79
2022/06/10 04:45:17;;;;;;;5.22;2.38;;;15.40;99.90;;;;;;4995200;28;20050;-78
2022/06/10 04:47:43;;;;;;;6.53;2.67;;;15.40;99.90;;;;;;4994443;28;20019;-78
2022/06/10 04:50:12;;;;;;;6.85;2.97;;;15.40;99.90;;;;;;4987272;28;20026;-78
2022/06/10 04:52:37;;;;;;;12.57;3.25;;;15.40;99.90;;;;;;4994354;28;20030;-78
2022/06/10 04:55:05;;;;;;;8.85;2.70;;;15.40;99.90;;;;;;4994320;28;20073;-79
2022/06/10 04:57:31;;;;;;;9.40;3.28;;;15.40;99.90;;;;;;4975854;28;20056;-79
2022/06/10 04:59:57;;;;;;;5.60;2.53;;;15.50;99.90;;;;;;4993668;28;20018;-78
2022/06/10 05:02:23;;;;;;;8.00;3.20;;;15.50;99.90;;;;;;4992774;28;20027;-79
2022/06/10 05:04:49;;;;;;;9.75;2.08;;;15.50;99.90;;;;;;4993385;28;20027;-79
2022/06/10 05:07:15;;;;;;;5.45;2.05;;;15.50;99.90;;;;;;4993894;28;20026;-79
2022/06/10 05:09:40;;;;;;;6.32;1.85;;;15.60;99.90;;;;;;4976493;28;20455;-79
2022/06/10 05:12:07;;;;;;;5.93;2.00;;;15.60;99.90;;;;;;4993787;28;20118;-78
2022/06/10 05:14:34;;;;;;;3.42;1.45;;;15.60;99.90;;;;;;5022160;22;20061;-87
2022/06/10 05:17:00;;;;;;;7.95;2.30;;;15.60;99.90;;;;;;5013268;28;20093;-84
2022/06/10 05:19:26;;;;;;;5.47;1.83;;;15.70;99.90;;;;;;4995438;28;20028;-85
2022/06/10 05:21:52;;;;;;;3.95;1.48;;;15.70;99.90;;;;;;5012718;28;20084;-84
2022/06/10 05:24:18;;;;;;;5.85;1.80;;;15.70;99.90;;;;;;4995500;28;20037;-87
2022/06/10 05:26:43;;;;;;;6.10;1.77;;;15.80;99.90;;;;;;5013162;28;20022;-85
2022/06/10 05:29:09;;;;;;;5.68;1.55;;;15.80;99.90;;;;;;5013106;28;20490;-85
2022/06/10 05:31:35;;;;;;;4.45;1.50;;;15.90;99.90;;;;;;4995652;28;20502;-83
2022/06/10 05:36:45;;;;;;;5.25;1.70;;;15.90;99.90;;;;;;5012690;28;20056;-86
2022/06/10 05:39:10;;;;;;;9.32;2.08;;;15.90;99.90;;;;;;5012580;28;20049;-83
2022/06/10 05:44:21;;;;;;;6.35;2.10;;;16.00;99.90;;;;;;5012126;28;20387;-87
2022/06/10 05:46:46;;;;;;;4.85;1.25;;;16.10;99.90;;;;;;5019037;28;20018;-83
2022/06/10 05:49:12;;;;;;;6.20;1.88;;;16.20;99.90;;;;;;5012406;28;20463;-85
2022/06/10 05:51:38;;;;;;;6.43;2.28;;;16.30;99.90;;;;;;5012638;28;21101;-84
2022/06/10 05:54:04;;;;;;;6.93;1.40;;;16.30;99.90;;;;;;4995047;28;20029;-84
2022/06/10 05:56:30;;;;;;;7.60;1.10;;;16.30;99.90;;;;;;5005768;28;20045;-85
2022/06/10 05:58:56;;;;;;;10.10;1.20;;;16.20;99.90;;;;;;5011829;28;20078;-84
2022/06/10 06:01:22;;;;;;;3.40;1.00;;;16.20;99.90;;;;;;4995678;28;20117;-86
2022/06/10 06:03:48;;;;;;;6.53;1.35;;;16.20;99.90;;;;;;4994499;28;20037;-86
2022/06/10 06:06:14;;;;;;;3.85;1.33;;;16.20;99.90;;;;;;5012432;28;20048;-88
2022/06/10 06:08:40;;;;;;;2.20;1.13;;;16.10;99.90;;;;;;5011396;28;20371;-85
2022/06/10 06:11:07;;;;;;;3.88;1.40;;;16.20;99.90;;;;;;5017499;28;20486;-85
2022/06/10 06:13:33;;;;;;;2.80;1.35;;;16.30;99.90;;;;;;5030669;23;20018;-78
2022/06/10 06:15:59;;;;;;;4.25;1.25;;;16.30;99.90;;;;;;5000596;28;20041;-79
2022/06/10 06:18:25;;;;;;;2.45;1.73;;;16.20;99.90;;;;;;4975363;28;20054;-79
2022/06/10 06:20:50;;;;;;;2.28;1.23;;;16.20;99.90;;;;;;4994928;28;20050;-79
2022/06/10 06:23:16;;;;;;;3.67;1.88;;;16.20;99.90;;;;;;4992652;28;20108;-79
2022/06/10 06:25:44;;;;;;;2.70;1.50;;;16.20;99.90;;;;;;4992591;28;20038;-80
2022/06/10 06:28:10;;;;;;;4.38;1.63;;;16.30;99.90;;;;;;4992157;28;20102;-80
2022/06/10 06:30:37;;;;;;;4.53;1.65;;;16.30;99.90;;;;;;4991748;28;20176;-79
2022/06/10 06:33:06;;;;;;;6.47;1.50;;;16.40;99.90;;;;;;4992111;28;20014;-79
2022/06/10 06:35:36;;;;;;;3.13;1.10;;;16.40;99.90;;;;;;4991912;28;20053;-79
2022/06/10 06:38:03;;;;;;;2.70;1.10;;;16.40;99.90;;;;;;4992098;28;20018;-79
2022/06/10 06:40:30;;;;;;;2.58;1.48;;;16.40;99.90;;;;;;4992078;28;20037;-79
2022/06/10 06:42:56;;;;;;;3.60;1.20;;;16.30;99.90;;;;;;4992296;28;20023;-79
2022/06/10 06:45:23;;;;;;;1.60;1.20;;;16.30;99.90;;;;;;4991779;28;20383;-79
2022/06/10 06:47:51;;;;;;;6.25;1.42;;;16.30;99.90;;;;;;4992103;28;20022;-79
2022/06/10 06:50:19;;;;;;;1.88;1.48;;;16.30;99.90;;;;;;4994266;28;20031;-79
2022/06/10 06:52:45;;;;;;;5.57;2.13;;;16.30;99.90;;;;;;4992674;28;20077;-79
2022/06/10 06:55:11;;;;;;;4.65;2.28;;;16.40;99.90;;;;;;4991993;28;20027;-79
2022/06/10 06:57:37;;;;;;;8.07;2.45;;;16.60;99.90;;;;;;4991938;28;20029;-79
2022/06/10 07:00:06;;;;;;;6.45;2.08;;;16.70;99.90;;;;;;4990147;28;20026;-79
2022/06/10 07:02:33;;;;;;;3.25;1.88;;;16.70;99.90;;;;;;4974179;28;20062;-79
2022/06/10 07:04:59;;;;;;;6.20;2.45;;;16.90;99.90;;;;;;4991570;28;20034;-79
2022/06/10 07:07:25;;;;;;;10.15;2.42;;;16.90;99.90;;;;;;4995705;28;20094;-79
2022/06/10 07:09:51;;;;;;;15.50;2.95;;;17.00;99.90;;;;;;4991205;28;20026;-79
2022/06/10 07:12:17;;;;;;;14.25;2.90;;;17.00;99.90;;;;;;4994526;28;20493;-79
2022/06/10 07:14:42;;;;;;;9.02;2.58;;;17.00;99.90;;;;;;5024894;23;20129;-88
2022/06/10 07:17:08;;;;;;;15.65;4.05;;;17.30;99.90;;;;;;5009123;28;20029;-90
2022/06/10 07:19:34;;;;;;;12.35;3.10;;;17.70;99.90;;;;;;5011824;28;20057;-86
2022/06/10 07:22:00;;;;;;;7.72;2.10;;;18.00;99.90;;;;;;5014899;28;20028;-87
2022/06/10 07:24:25;;;;;;;17.75;4.30;;;18.30;99.90;;;;;;5014356;28;20033;-86
2022/06/10 07:26:51;;;;;;;13.40;2.95;;;18.40;99.90;;;;;;5014616;28;20030;-87
2022/06/10 07:29:18;;;;;;;9.60;2.33;;;18.50;99.90;;;;;;5014946;28;20046;-88
2022/06/10 07:31:45;;;;;;;7.50;2.05;;;18.50;99.90;;;;;;4993925;28;20022;-88
2022/06/10 07:34:11;;;;;;;9.60;2.30;;;18.40;99.90;;;;;;5011523;28;20022;-89
2022/06/10 07:36:38;;;;;;;4.32;1.55;;;18.50;99.90;;;;;;5014466;28;20079;-89
2022/06/10 07:39:04;;;;;;;5.10;1.95;;;18.40;99.90;;;;;;5013628;28;20030;-90
2022/06/10 07:44:14;;;;;;;6.15;2.20;;;18.20;99.90;;;;;;5004004;28;20045;-87
2022/06/10 07:46:40;;;;;;;8.05;2.00;;;18.20;99.90;;;;;;5013486;28;20755;-88
2022/06/10 07:49:06;;;;;;;8.65;2.90;;;18.20;99.90;;;;;;5013496;28;20099;-89
2022/06/10 07:51:32;;;;;;;7.63;2.55;;;18.20;99.90;;;;;;5014864;28;20108;-89
2022/06/10 07:53:57;;;;;;;9.00;2.47;;;18.10;99.90;;;;;;5014876;28;20029;-89
2022/06/10 07:56:23;;;;;;;6.95;3.00;;;18.10;99.90;;;;;;5015092;28;20391;-88
2022/06/10 07:58:50;;;;;;;8.10;2.15;;;18.30;99.90;;;;;;5014545;28;20067;-88
2022/06/10 08:01:16;;;;;;;6.22;2.05;;;18.10;99.90;;;;;;5015211;28;20026;-86
2022/06/10 08:03:42;;;;;;;11.75;2.20;;;17.90;99.90;;;;;;5014705;28;20029;-88
2022/06/10 08:06:08;;;;;;;12.35;3.25;;;18.10;99.90;;;;;;5006659;28;20034;-90
2022/06/10 08:08:34;;;;;;;8.20;2.53;;;18.50;99.90;;;;;;5015154;28;20356;-86
2022/06/10 08:11:00;;;;;;;11.70;2.08;;;18.40;99.90;;;;;;5007974;28;20030;-91
2022/06/10 08:16:00;;;;;;;8.70;2.45;;;18.50;99.90;;;;;;5050143;28;20052;-81
2022/06/10 08:18:30;;;;;;;10.55;2.42;;;18.90;99.90;;;;;;5034777;28;20017;-81
2022/06/10 08:23:41;;;;;;;8.82;2.47;;;19.20;99.90;;;;;;5051369;28;20158;-79
2022/06/10 08:26:08;;;;;;;8.35;2.05;;;19.60;99.90;;;;;;5015587;28;20033;-81
2022/06/10 08:28:36;;;;;;;8.23;2.30;;;19.50;99.90;;;;;;5033704;28;20025;-81
2022/06/10 08:31:02;;;;;;;12.48;2.88;;;19.90;99.90;;;;;;5032075;28;20107;-81
2022/06/10 08:33:28;;;;;;;13.68;1.95;;;20.10;99.90;;;;;;5032879;28;20034;-80
2022/06/10 08:35:54;;;;;;;8.95;2.17;;;20.10;99.90;;;;;;5032458;28;20020;-80
2022/06/10 08:38:19;;;;;;;11.25;2.78;;;20.70;99.90;;;;;;5033373;28;20032;-80
2022/06/10 08:41:04;;;;;;;13.52;2.60;;;21.20;99.90;;;;;;5032862;28;20045;-80
2022/06/10 08:43:51;;;;;;;12.57;2.35;;;21.10;99.90;;;;;;5032902;28;20025;-80
2022/06/10 08:46:29;;;;;;;11.63;2.50;;;20.80;99.90;;;;;;5032610;28;20061;-79
2022/06/10 08:48:58;;;;;;;15.20;2.47;;;21.10;99.90;;;;;;5033093;28;20045;-82
2022/06/10 08:51:46;;;;;;;8.82;2.15;;;21.10;99.90;;;;;;5015030;28;20029;-80
2022/06/10 08:54:16;;;;;;;8.73;2.22;;;21.10;99.90;;;;;;5033332;28;20103;-81
2022/06/10 08:56:49;;;;;;;9.05;2.40;;;21.70;99.90;;;;;;5033119;28;20080;-81
2022/06/10 08:59:35;;;;;;;11.57;2.90;;;21.40;99.90;;;;;;5026317;28;20033;-80
2022/06/10 09:02:28;;;;;;;10.70;2.45;;;21.30;99.90;;;;;;5026896;28;20025;-80
2022/06/10 09:05:19;;;;;;;13.25;1.90;;;21.60;99.90;;;;;;5028326;28;20033;-81
2022/06/10 09:08:04;;;;;;;11.63;2.95;;;21.60;99.90;;;;;;5028490;28;20056;-81
2022/06/10 09:10:37;;;;;;;10.55;2.50;;;22.10;99.90;;;;;;5032655;28;20032;-82
2022/06/10 09:13:18;;;;;;;10.25;1.95;;;22.60;99.80;;;;;;5033109;28;20021;-81
2022/06/10 09:15:53;;;;;;;10.35;2.53;;;22.00;98.80;;;;;;5006010;23;20127;-88
2022/06/10 09:18:46;;;;;;;10.85;1.88;;;21.50;99.90;;;;;;4974215;28;20034;-90
2022/06/10 09:21:40;;;;;;;7.18;1.92;;;21.20;99.90;;;;;;4970284;28;20031;-88
2022/06/10 09:24:32;;;;;;;5.97;1.83;;;20.70;99.90;;;;;;4973089;28;20085;-87
2022/06/10 09:27:15;;;;;;;11.45;2.25;;;20.50;99.90;;;;;;4965844;28;20504;-89
2022/06/10 09:29:42;;;;;;;9.70;2.38;;;21.40;99.90;;;;;;4981183;28;20039;-87
2022/06/10 09:32:33;;;;;;;9.23;1.88;;;22.70;99.90;;;;;;4973819;28;20023;-89
2022/06/10 09:35:11;;;;;;;12.07;3.00;;;24.30;93.60;;;;;;4969395;28;20018;-87
2022/06/10 09:37:54;;;;;;;12.55;2.63;;;23.80;87.10;;;;;;4973377;28;20026;-88
2022/06/10 09:40:37;;;;;;;6.53;2.10;;;23.40;93.50;;;;;;4969113;28;20061;-89
2022/06/10 09:43:14;;;;;;;6.38;1.75;;;23.00;91.10;;;;;;4975909;28;20031;-86
2022/06/10 09:46:04;;;;;;;11.77;2.83;;;23.10;91.50;;;;;;4967557;28;20038;-91
2022/06/10 09:48:54;;;;;;;15.63;3.28;;;23.40;92.10;;;;;;4968897;28;20042;-86
2022/06/10 09:52:03;;;;;;;9.40;2.00;;;23.20;93.10;;;;;;4971198;28;20074;-85
2022/06/10 09:55:01;;;;;;;12.70;2.45;;;23.10;90.60;;;;;;4934070;28;20054;-86
2022/06/10 09:57:31;;;;;;;11.18;2.08;;;22.60;90.70;;;;;;4967345;28;20520;-87
2022/06/10 10:00:04;;;;;;;10.80;1.92;;;22.90;92.00;;;;;;4972826;28;20018;-86
2022/06/10 10:03:08;;;;;;;12.05;2.53;;;23.50;89.30;;;;;;4972878;28;20097;-89
2022/06/10 10:05:45;;;;;;;6.05;1.80;;;24.30;91.40;;;;;;4966337;28;20480;-89
2022/06/10 10:08:29;;;;;;;10.23;2.38;;;24.90;79.90;;;;;;4972829;28;20023;-84
2022/06/10 10:11:21;;;;;;;10.43;2.10;;;25.20;78.00;;;;;;4971279;28;20109;-87
2022/06/10 10:14:10;;;;;;;8.65;1.83;;;24.90;76.10;;;;;;4989565;23;20056;-81
2022/06/10 10:16:50;;;;;;;8.48;2.03;;;25.00;77.10;;;;;;4991191;28;20033;-80
2022/06/10 10:19:18;;;;;;;7.15;1.92;;;25.00;75.10;;;;;;4986529;28;20026;-81
2022/06/10 10:22:12;;;;;;;7.13;1.88;;;25.40;76.00;;;;;;4991526;28;20025;-80
2022/06/10 10:24:42;;;;;;;7.47;1.55;;;26.10;71.10;;;;;;4985797;28;20014;-81
2022/06/10 10:27:21;;;;;;;7.70;1.80;;;26.90;70.50;;;;;;4990000;28;20084;-80
2022/06/10 10:29:50;;;;;;;7.45;1.83;;;26.30;68.60;;;;;;4992476;28;20069;-81
2022/06/10 10:32:30;;;;;;;7.53;2.80;;;26.10;68.20;;;;;;4990398;28;20026;-80
2022/06/10 10:35:05;;;;;;;17.02;1.98;;;25.40;70.60;;;;;;4990193;28;20503;-80
2022/06/10 10:37:35;;;;;;;8.20;1.77;;;25.30;70.50;;;;;;4991956;28;20066;-80
2022/06/10 10:40:20;;;;;;;12.15;3.17;;;25.30;71.70;;;;;;4992626;28;20030;-79
2022/06/10 10:42:49;;;;;;;10.13;1.98;;;26.00;73.00;;;;;;4999471;28;20045;-81
2022/06/10 10:45:36;;;;;;;12.48;2.17;;;26.80;69.50;;;;;;4992352;28;20026;-80
2022/06/10 10:48:25;;;;;;;7.75;1.90;;;26.70;65.30;;;;;;4992534;28;20022;-80
2022/06/10 10:51:10;;;;;;;9.73;2.05;;;27.00;66.40;;;;;;4992107;28;20153;-80
2022/06/10 10:53:47;;;;;;;9.65;1.77;;;27.40;63.80;;;;;;4976954;28;20404;-81
2022/06/10 10:56:14;;;;;;;15.25;2.20;;;26.80;65.90;;;;;;4989820;28;20024;-79
2022/06/10 10:58:48;;;;;;;5.88;2.10;;;27.00;65.80;;;;;;4992398;28;20030;-79
2022/06/10 11:01:45;;;;;;;9.27;2.17;;;27.50;64.80;;;;;;4992339;28;20080;-80
2022/06/10 11:04:46;;;;;;;9.88;1.90;;;27.70;61.60;;;;;;4991910;28;20023;-79
2022/06/10 11:07:19;;;;;;;8.73;1.83;;;26.40;63.80;;;;;;4991857;28;20038;-81
2022/06/10 11:09:55;;;;;;;8.80;1.77;;;27.20;66.40;;;;;;4992042;28;20026;-80
2022/06/10 11:12:25;;;;;;;9.60;1.98;;;26.90;63.20;;;;;;4992138;28;20038;-81
2022/06/10 11:15:00;;;;;;;11.10;2.33;;;26.70;64.70;;;;;;5022072;23;20052;-87
2022/06/10 11:17:26;;;;;;;7.10;1.95;;;26.70;64.30;;;;;;5006043;28;20030;-87
2022/06/10 11:20:00;;;;;;;11.68;2.03;;;26.20;64.60;;;;;;5018565;28;20025;-85
2022/06/10 11:22:34;;;;;;;12.40;2.33;;;25.90;66.60;;;;;;5011889;28;20026;-86
2022/06/10 11:25:02;;;;;;;14.15;2.50;;;25.50;67.10;;;;;;5009411;28;20029;-86
2022/06/10 11:27:35;;;;;;;12.75;2.13;;;25.10;69.30;;;;;;5011474;28;20030;-86
2022/06/10 11:30:10;;;;;;;11.35;2.00;;;25.50;69.20;;;;;;4995716;28;20018;-88
2022/06/10 11:32:48;;;;;;;12.38;2.22;;;27.10;65.70;;;;;;5011583;28;20026;-87
2022/06/10 11:35:20;;;;;;;10.02;2.15;;;27.60;63.60;;;;;;5011383;28;20025;-87
2022/06/10 11:37:50;;;;;;;7.28;2.42;;;27.80;62.70;;;;;;5011302;28;20022;-86
2022/06/10 11:40:26;;;;;;;7.25;2.08;;;28.00;58.30;;;;;;5011279;28;20029;-86
2022/06/10 11:43:05;;;;;;;8.50;2.00;;;28.70;60.00;;;;;;5005596;28;20022;-88
2022/06/10 11:45:45;;;;;;;11.15;1.92;;;28.90;60.40;;;;;;5017161;28;20021;-86
2022/06/10 11:48:29;;;;;;;7.63;1.85;;;29.10;58.40;;;;;;5004658;28;20084;-89
2022/06/10 11:51:04;;;;;;;10.13;1.88;;;30.20;57.70;;;;;;5004699;28;20022;-85
2022/06/10 11:53:56;;;;;;;8.20;1.83;;;29.10;56.20;;;;;;5018049;28;20014;-86
2022/06/10 12:00:06;;;;;;;9.95;2.25;;;28.40;57.50;;;;;;5007182;28;20041;-88
2022/06/10 12:02:42;;;;;;;10.02;1.85;;;27.80;59.10;;;;;;4981267;28;20034;-88
2022/06/10 12:05:37;;;;;;;8.50;1.92;;;27.20;62.30;;;;;;5009823;28;20037;-86
2022/06/10 12:08:21;;;;;;;8.82;1.85;;;27.20;63.40;;;;;;4984322;28;20034;-85
2022/06/10 12:11:14;;;;;;;6.88;2.20;;;26.60;62.40;;;;;;5014634;28;20029;-86
2022/06/10 12:16:17;;;;;;;11.68;2.58;;;24.50;67.30;;;;;;5037760;28;20045;-81
2022/06/10 12:18:48;;;;;;;8.10;1.63;;;24.40;69.20;;;;;;5034109;28;20386;-81
2022/06/10 12:21:21;;;;;;;8.95;2.13;;;24.30;69.80;;;;;;5034789;28;20029;-81
2022/06/10 12:23:47;;;;;;;10.18;2.30;;;25.30;69.30;;;;;;5033963;28;20067;-79
2022/06/10 12:26:19;;;;;;;12.70;1.88;;;25.50;67.20;;;;;;5033851;28;20034;-79
2022/06/10 12:28:44;;;;;;;;;;;27.60;64.20;;;;;;5034505;28;20025;-79
2022/06/10 12:31:19;;;;;;;8.02;1.65;;;27.60;60.80;;;;;;5034063;28;20277;-79
2022/06/10 12:33:54;;;;;;;9.60;2.28;;;27.50;60.10;;;;;;5016190;28;20028;-78
2022/06/10 12:36:28;;;;;;;7.03;1.80;;;26.70;62.40;;;;;;5027298;28;20021;-79
2022/06/10 12:38:57;;;;;;;6.25;1.85;;;26.90;62.70;;;;;;5033979;28;20066;-79
2022/06/10 12:41:37;;;;;;;8.35;1.70;;;27.30;60.50;;;;;;5033494;28;20025;-78
2022/06/10 12:44:06;;;;;;;8.48;1.80;;;27.50;60.80;;;;;;5033882;28;20057;-79
2022/06/10 12:46:40;;;;;;;8.95;1.40;;;27.90;60.90;;;;;;5033599;28;20115;-79
2022/06/10 12:49:16;;;;;;;8.00;1.60;;;28.50;57.20;;;;;;5027517;28;20024;-78
2022/06/10 12:52:01;;;;;;;8.63;1.77;;;29.60;56.30;;;;;;5016161;28;20033;-79
2022/06/10 12:54:40;;;;;;;10.65;1.70;;;29.70;55.30;;;;;;5040138;28;20013;-79
2022/06/10 12:57:44;;;;;;;9.65;2.50;;;28.20;56.20;;;;;;5033283;28;20052;-79
2022/06/10 13:00:19;;;;;;;10.68;2.47;;;28.90;59.40;;;;;;4948188;28;20035;-79
2022/06/10 13:02:46;;;;;;;7.38;1.65;;;29.60;56.80;;;;;;4946858;28;20143;-79
2022/06/10 13:05:27;;;;;;;9.55;2.13;;;30.40;52.30;;;;;;4986820;28;20034;-79
2022/06/10 13:07:55;;;;;;;7.90;2.80;;;30.40;53.30;;;;;;5033374;28;20425;-79
2022/06/10 13:10:30;;;;;;;7.18;1.67;;;31.70;52.50;;;;;;5015169;28;20078;-80
2022/06/10 13:13:18;;;;;;;10.70;2.35;;;32.20;49.00;;;;;;5033333;28;20053;-80
2022/06/10 13:15:44;;;;;;;10.45;2.58;;;32.00;48.60;;;;;;5026135;23;20044;-86
2022/06/10 13:18:33;;;;;;;6.35;1.10;;;31.30;50.50;;;;;;4992845;28;20085;-88
2022/06/10 13:21:14;;;;;;;10.82;2.03;;;30.00;51.40;;;;;;4992045;28;20114;-86
2022/06/10 13:23:49;;;;;;;9.35;2.03;;;30.30;53.70;;;;;;5002755;28;20029;-85
2022/06/10 13:26:18;;;;;;;12.10;1.92;;;30.30;51.20;;;;;;5000756;28;20048;-87
2022/06/10 13:28:45;;;;;;;6.95;1.95;;;31.10;50.50;;;;;;4993334;28;20419;-89
2022/06/10 13:31:21;;;;;;;12.45;2.47;;;31.20;53.30;;;;;;4992548;28;20037;-88
2022/06/10 13:34:05;;;;;;;11.63;2.17;;;29.50;52.10;;;;;;4991772;28;20034;-86
2022/06/10 13:36:37;;;;;;;7.55;2.08;;;29.80;54.60;;;;;;4988361;28;20023;-86
2022/06/10 13:39:06;;;;;;;5.75;1.92;;;29.80;53.90;;;;;;4986520;28;20073;-88